sensor_id;sensor_type;location;lat;lon;timestamp;P1;durP1;ratioP1;P2;durP2;ratioP2
15012;SDS011;7603;49.432;11.418;2024-01-30T00:01:45;5.23;;;4.67;;
15012;SDS011;7603;49.432;11.418;2024-01-30T00:04:10;3.37;;;3.17;;
15012;SDS011;7603;49.432;11.418;2024-01-30T00:06:36;3.67;;;3.00;;
15012;SDS011;7603;49.432;11.418;2024-01-30T00:09:02;2.80;;;2.60;;
15012;SDS011;7603;49.432;11.418;2024-01-30T00:11:27;2.90;;;2.70;;
15012;SDS011;7603;49.432;11.418;2024-01-30T00:13:54;3.10;;;2.90;;
15012;SDS011;7603;49.432;11.418;2024-01-30T00:16:23;3.33;;;2.67;;
15012;SDS011;7603;49.432;11.418;2024-01-30T00:18:50;2.47;;;2.37;;
15012;SDS011;7603;49.432;11.418;2024-01-30T00:21:16;2.93;;;2.73;;
15012;SDS011;7603;49.432;11.418;2024-01-30T00:23:41;2.27;;;2.17;;
15012;SDS011;7603;49.432;11.418;2024-01-30T00:26:07;3.60;;;2.73;;
15012;SDS011;7603;49.432;11.418;2024-01-30T00:28:33;2.90;;;2.70;;
15012;SDS011;7603;49.432;11.418;2024-01-30T00:30:58;3.00;;;2.80;;
15012;SDS011;7603;49.432;11.418;2024-01-30T00:33:24;3.63;;;3.40;;
15012;SDS011;7603;49.432;11.418;2024-01-30T00:35:50;3.83;;;2.80;;
15012;SDS011;7603;49.432;11.418;2024-01-30T00:38:15;3.17;;;2.97;;
15012;SDS011;7603;49.432;11.418;2024-01-30T00:40:41;3.17;;;2.27;;
15012;SDS011;7603;49.432;11.418;2024-01-30T00:43:06;2.50;;;2.30;;
15012;SDS011;7603;49.432;11.418;2024-01-30T00:45:33;3.30;;;2.60;;
15012;SDS011;7603;49.432;11.418;2024-01-30T00:47:59;3.87;;;2.87;;
15012;SDS011;7603;49.432;11.418;2024-01-30T00:50:25;2.30;;;2.20;;
15012;SDS011;7603;49.432;11.418;2024-01-30T00:52:50;3.10;;;2.90;;
15012;SDS011;7603;49.432;11.418;2024-01-30T00:55:16;2.40;;;2.30;;
15012;SDS011;7603;49.432;11.418;2024-01-30T00:57:42;2.07;;;1.97;;
15012;SDS011;7603;49.432;11.418;2024-01-30T01:00:07;2.33;;;2.17;;
15012;SDS011;7603;49.432;11.418;2024-01-30T01:02:34;2.97;;;2.77;;
15012;SDS011;7603;49.432;11.418;2024-01-30T01:05:00;4.07;;;2.70;;
15012;SDS011;7603;49.432;11.418;2024-01-30T01:07:26;2.20;;;2.10;;
15012;SDS011;7603;49.432;11.418;2024-01-30T01:09:52;2.57;;;2.40;;
15012;SDS011;7603;49.432;11.418;2024-01-30T01:12:18;2.27;;;2.07;;
15012;SDS011;7603;49.432;11.418;2024-01-30T01:14:43;3.07;;;2.53;;
15012;SDS011;7603;49.432;11.418;2024-01-30T01:17:09;2.53;;;2.33;;
15012;SDS011;7603;49.432;11.418;2024-01-30T01:19:35;3.93;;;2.87;;
15012;SDS011;7603;49.432;11.418;2024-01-30T01:22:00;2.07;;;1.97;;
15012;SDS011;7603;49.432;11.418;2024-01-30T01:24:26;10.13;;;2.97;;
15012;SDS011;7603;49.432;11.418;2024-01-30T01:26:51;4.00;;;2.80;;
15012;SDS011;7603;49.432;11.418;2024-01-30T01:29:17;3.83;;;2.97;;
15012;SDS011;7603;49.432;11.418;2024-01-30T01:31:43;3.77;;;3.33;;
15012;SDS011;7603;49.432;11.418;2024-01-30T01:34:12;3.63;;;2.60;;
15012;SDS011;7603;49.432;11.418;2024-01-30T01:36:38;2.90;;;2.63;;
15012;SDS011;7603;49.432;11.418;2024-01-30T01:39:04;7.27;;;2.80;;
15012;SDS011;7603;49.432;11.418;2024-01-30T01:41:30;3.87;;;2.87;;
15012;SDS011;7603;49.432;11.418;2024-01-30T01:43:57;3.60;;;3.30;;
15012;SDS011;7603;49.432;11.418;2024-01-30T01:46:22;4.43;;;3.23;;
15012;SDS011;7603;49.432;11.418;2024-01-30T01:48:49;3.23;;;2.83;;
15012;SDS011;7603;49.432;11.418;2024-01-30T01:51:15;4.00;;;2.90;;
15012;SDS011;7603;49.432;11.418;2024-01-30T01:53:41;4.53;;;3.13;;
15012;SDS011;7603;49.432;11.418;2024-01-30T01:56:07;3.20;;;2.90;;
15012;SDS011;7603;49.432;11.418;2024-01-30T01:58:33;4.20;;;3.80;;
15012;SDS011;7603;49.432;11.418;2024-01-30T02:01:00;4.57;;;3.73;;
15012;SDS011;7603;49.432;11.418;2024-01-30T02:03:27;4.37;;;4.07;;
15012;SDS011;7603;49.432;11.418;2024-01-30T02:05:52;3.97;;;3.60;;
15012;SDS011;7603;49.432;11.418;2024-01-30T02:08:19;4.00;;;3.53;;
15012;SDS011;7603;49.432;11.418;2024-01-30T02:10:45;5.23;;;3.70;;
15012;SDS011;7603;49.432;11.418;2024-01-30T02:13:10;4.83;;;3.80;;
15012;SDS011;7603;49.432;11.418;2024-01-30T02:15:36;6.97;;;4.10;;
15012;SDS011;7603;49.432;11.418;2024-01-30T02:18:02;4.73;;;4.33;;
15012;SDS011;7603;49.432;11.418;2024-01-30T02:20:28;4.23;;;3.87;;
15012;SDS011;7603;49.432;11.418;2024-01-30T02:22:56;4.60;;;4.03;;
15012;SDS011;7603;49.432;11.418;2024-01-30T02:25:39;5.17;;;4.43;;
15012;SDS011;7603;49.432;11.418;2024-01-30T02:28:11;5.17;;;4.10;;
15012;SDS011;7603;49.432;11.418;2024-01-30T02:30:42;4.53;;;4.13;;
15012;SDS011;7603;49.432;11.418;2024-01-30T02:33:08;5.30;;;4.63;;
15012;SDS011;7603;49.432;11.418;2024-01-30T02:35:34;5.27;;;4.50;;
15012;SDS011;7603;49.432;11.418;2024-01-30T02:38:00;4.43;;;3.87;;
15012;SDS011;7603;49.432;11.418;2024-01-30T02:40:25;6.47;;;4.60;;
15012;SDS011;7603;49.432;11.418;2024-01-30T02:42:51;5.70;;;5.20;;
15012;SDS011;7603;49.432;11.418;2024-01-30T02:45:17;6.20;;;5.63;;
15012;SDS011;7603;49.432;11.418;2024-01-30T02:47:42;5.83;;;5.20;;
15012;SDS011;7603;49.432;11.418;2024-01-30T02:50:08;4.57;;;4.17;;
15012;SDS011;7603;49.432;11.418;2024-01-30T02:52:34;4.53;;;4.23;;
15012;SDS011;7603;49.432;11.418;2024-01-30T02:55:00;5.53;;;4.90;;
15012;SDS011;7603;49.432;11.418;2024-01-30T02:57:27;5.40;;;4.93;;
15012;SDS011;7603;49.432;11.418;2024-01-30T02:59:53;5.23;;;4.70;;
15012;SDS011;7603;49.432;11.418;2024-01-30T03:02:19;5.57;;;5.07;;
15012;SDS011;7603;49.432;11.418;2024-01-30T03:04:45;5.27;;;4.47;;
15012;SDS011;7603;49.432;11.418;2024-01-30T03:07:11;5.80;;;5.30;;
15012;SDS011;7603;49.432;11.418;2024-01-30T03:09:36;5.27;;;4.87;;
15012;SDS011;7603;49.432;11.418;2024-01-30T03:12:02;5.00;;;4.60;;
15012;SDS011;7603;49.432;11.418;2024-01-30T03:14:30;5.40;;;4.90;;
15012;SDS011;7603;49.432;11.418;2024-01-30T03:16:56;4.83;;;4.43;;
15012;SDS011;7603;49.432;11.418;2024-01-30T03:19:23;5.40;;;4.87;;
15012;SDS011;7603;49.432;11.418;2024-01-30T03:21:48;7.73;;;5.43;;
15012;SDS011;7603;49.432;11.418;2024-01-30T03:24:14;5.57;;;5.07;;
15012;SDS011;7603;49.432;11.418;2024-01-30T03:26:40;4.97;;;4.47;;
15012;SDS011;7603;49.432;11.418;2024-01-30T03:29:06;7.73;;;6.43;;
15012;SDS011;7603;49.432;11.418;2024-01-30T03:31:32;8.63;;;6.43;;
15012;SDS011;7603;49.432;11.418;2024-01-30T03:33:58;6.83;;;6.27;;
15012;SDS011;7603;49.432;11.418;2024-01-30T03:36:23;6.97;;;5.53;;
15012;SDS011;7603;49.432;11.418;2024-01-30T03:38:49;7.37;;;6.60;;
15012;SDS011;7603;49.432;11.418;2024-01-30T03:41:15;10.20;;;8.27;;
15012;SDS011;7603;49.432;11.418;2024-01-30T03:43:41;13.23;;;8.87;;
15012;SDS011;7603;49.432;11.418;2024-01-30T03:46:06;8.90;;;6.90;;
15012;SDS011;7603;49.432;11.418;2024-01-30T03:48:32;8.43;;;6.37;;
15012;SDS011;7603;49.432;11.418;2024-01-30T03:50:58;7.40;;;6.70;;
15012;SDS011;7603;49.432;11.418;2024-01-30T03:53:24;9.43;;;7.20;;
15012;SDS011;7603;49.432;11.418;2024-01-30T03:55:49;10.73;;;7.20;;
15012;SDS011;7603;49.432;11.418;2024-01-30T03:58:15;14.27;;;8.10;;
15012;SDS011;7603;49.432;11.418;2024-01-30T04:00:40;9.83;;;8.27;;
15012;SDS011;7603;49.432;11.418;2024-01-30T04:03:06;9.73;;;7.93;;
15012;SDS011;7603;49.432;11.418;2024-01-30T04:05:32;8.97;;;8.13;;
15012;SDS011;7603;49.432;11.418;2024-01-30T04:07:58;9.07;;;7.60;;
15012;SDS011;7603;49.432;11.418;2024-01-30T04:10:24;10.43;;;8.20;;
15012;SDS011;7603;49.432;11.418;2024-01-30T04:12:50;11.90;;;8.77;;
15012;SDS011;7603;49.432;11.418;2024-01-30T04:15:16;9.37;;;6.77;;
15012;SDS011;7603;49.432;11.418;2024-01-30T04:17:43;10.90;;;7.60;;
15012;SDS011;7603;49.432;11.418;2024-01-30T04:20:13;10.90;;;8.57;;
15012;SDS011;7603;49.432;11.418;2024-01-30T04:22:45;10.20;;;8.97;;
15012;SDS011;7603;49.432;11.418;2024-01-30T04:25:11;12.83;;;8.67;;
15012;SDS011;7603;49.432;11.418;2024-01-30T04:27:38;10.10;;;8.50;;
15012;SDS011;7603;49.432;11.418;2024-01-30T04:30:04;9.73;;;8.80;;
15012;SDS011;7603;49.432;11.418;2024-01-30T04:32:30;11.57;;;10.33;;
15012;SDS011;7603;49.432;11.418;2024-01-30T04:34:56;11.40;;;10.00;;
15012;SDS011;7603;49.432;11.418;2024-01-30T04:37:22;12.93;;;9.43;;
15012;SDS011;7603;49.432;11.418;2024-01-30T04:39:48;10.77;;;8.67;;
15012;SDS011;7603;49.432;11.418;2024-01-30T04:42:13;13.23;;;9.57;;
15012;SDS011;7603;49.432;11.418;2024-01-30T04:44:39;11.80;;;9.47;;
15012;SDS011;7603;49.432;11.418;2024-01-30T04:47:04;10.33;;;8.80;;
15012;SDS011;7603;49.432;11.418;2024-01-30T04:49:33;9.90;;;8.90;;
15012;SDS011;7603;49.432;11.418;2024-01-30T04:51:58;10.77;;;8.13;;
15012;SDS011;7603;49.432;11.418;2024-01-30T04:54:24;10.37;;;8.43;;
15012;SDS011;7603;49.432;11.418;2024-01-30T04:56:50;13.17;;;8.60;;
15012;SDS011;7603;49.432;11.418;2024-01-30T04:59:16;10.27;;;8.80;;
15012;SDS011;7603;49.432;11.418;2024-01-30T05:01:41;19.33;;;9.37;;
15012;SDS011;7603;49.432;11.418;2024-01-30T05:04:07;11.10;;;9.37;;
15012;SDS011;7603;49.432;11.418;2024-01-30T05:06:33;9.63;;;8.60;;
15012;SDS011;7603;49.432;11.418;2024-01-30T05:08:59;10.07;;;9.03;;
15012;SDS011;7603;49.432;11.418;2024-01-30T05:11:25;11.33;;;8.53;;
15012;SDS011;7603;49.432;11.418;2024-01-30T05:13:50;12.80;;;9.53;;
15012;SDS011;7603;49.432;11.418;2024-01-30T05:16:16;9.70;;;8.47;;
15012;SDS011;7603;49.432;11.418;2024-01-30T05:18:41;10.33;;;9.30;;
15012;SDS011;7603;49.432;11.418;2024-01-30T05:21:07;10.90;;;9.00;;
15012;SDS011;7603;49.432;11.418;2024-01-30T05:23:33;12.73;;;10.63;;
15012;SDS011;7603;49.432;11.418;2024-01-30T05:25:59;11.17;;;9.13;;
15012;SDS011;7603;49.432;11.418;2024-01-30T05:28:26;11.20;;;9.17;;
15012;SDS011;7603;49.432;11.418;2024-01-30T05:30:51;16.07;;;10.20;;
15012;SDS011;7603;49.432;11.418;2024-01-30T05:33:17;15.33;;;10.47;;
15012;SDS011;7603;49.432;11.418;2024-01-30T05:35:43;12.77;;;9.67;;
15012;SDS011;7603;49.432;11.418;2024-01-30T05:38:08;12.70;;;10.00;;
15012;SDS011;7603;49.432;11.418;2024-01-30T05:40:34;16.33;;;11.20;;
15012;SDS011;7603;49.432;11.418;2024-01-30T05:42:59;18.57;;;13.60;;
15012;SDS011;7603;49.432;11.418;2024-01-30T05:45:27;14.17;;;11.03;;
15012;SDS011;7603;49.432;11.418;2024-01-30T05:47:53;14.17;;;11.27;;
15012;SDS011;7603;49.432;11.418;2024-01-30T05:50:19;16.60;;;12.07;;
15012;SDS011;7603;49.432;11.418;2024-01-30T05:52:45;19.63;;;12.13;;
15012;SDS011;7603;49.432;11.418;2024-01-30T05:55:11;15.77;;;11.73;;
15012;SDS011;7603;49.432;11.418;2024-01-30T05:57:37;24.03;;;13.50;;
15012;SDS011;7603;49.432;11.418;2024-01-30T06:00:04;18.60;;;13.03;;
15012;SDS011;7603;49.432;11.418;2024-01-30T06:02:30;22.58;;;16.20;;
15012;SDS011;7603;49.432;11.418;2024-01-30T06:04:56;25.40;;;14.47;;
15012;SDS011;7603;49.432;11.418;2024-01-30T06:07:21;16.60;;;12.77;;
15012;SDS011;7603;49.432;11.418;2024-01-30T06:09:47;16.33;;;13.73;;
15012;SDS011;7603;49.432;11.418;2024-01-30T06:12:13;19.30;;;12.50;;
15012;SDS011;7603;49.432;11.418;2024-01-30T06:14:39;27.20;;;16.57;;
15012;SDS011;7603;49.432;11.418;2024-01-30T06:17:05;23.70;;;15.07;;
15012;SDS011;7603;49.432;11.418;2024-01-30T06:19:30;19.60;;;14.03;;
15012;SDS011;7603;49.432;11.418;2024-01-30T06:21:56;20.97;;;13.87;;
15012;SDS011;7603;49.432;11.418;2024-01-30T06:24:22;22.10;;;14.47;;
15012;SDS011;7603;49.432;11.418;2024-01-30T06:26:47;21.97;;;14.23;;
15012;SDS011;7603;49.432;11.418;2024-01-30T06:29:13;27.67;;;15.67;;
15012;SDS011;7603;49.432;11.418;2024-01-30T06:31:43;23.13;;;15.27;;
15012;SDS011;7603;49.432;11.418;2024-01-30T06:34:09;20.60;;;14.93;;
15012;SDS011;7603;49.432;11.418;2024-01-30T06:36:36;22.47;;;15.73;;
15012;SDS011;7603;49.432;11.418;2024-01-30T06:39:02;23.23;;;16.60;;
15012;SDS011;7603;49.432;11.418;2024-01-30T06:41:28;23.73;;;16.77;;
15012;SDS011;7603;49.432;11.418;2024-01-30T06:43:54;26.70;;;16.97;;
15012;SDS011;7603;49.432;11.418;2024-01-30T06:46:20;28.23;;;17.60;;
15012;SDS011;7603;49.432;11.418;2024-01-30T06:48:46;27.67;;;17.47;;
15012;SDS011;7603;49.432;11.418;2024-01-30T06:51:11;22.83;;;16.87;;
15012;SDS011;7603;49.432;11.418;2024-01-30T06:53:37;28.30;;;16.10;;
15012;SDS011;7603;49.432;11.418;2024-01-30T06:56:03;24.23;;;16.07;;
15012;SDS011;7603;49.432;11.418;2024-01-30T06:58:29;21.80;;;16.80;;
15012;SDS011;7603;49.432;11.418;2024-01-30T07:00:55;22.33;;;16.63;;
15012;SDS011;7603;49.432;11.418;2024-01-30T07:03:21;29.13;;;17.00;;
15012;SDS011;7603;49.432;11.418;2024-01-30T07:05:47;28.40;;;18.47;;
15012;SDS011;7603;49.432;11.418;2024-01-30T07:08:14;37.10;;;21.00;;
15012;SDS011;7603;49.432;11.418;2024-01-30T07:10:42;29.97;;;17.03;;
15012;SDS011;7603;49.432;11.418;2024-01-30T07:13:08;28.67;;;18.83;;
15012;SDS011;7603;49.432;11.418;2024-01-30T07:15:35;24.43;;;16.57;;
15012;SDS011;7603;49.432;11.418;2024-01-30T07:18:01;29.80;;;17.27;;
15012;SDS011;7603;49.432;11.418;2024-01-30T07:20:27;24.20;;;17.20;;
15012;SDS011;7603;49.432;11.418;2024-01-30T07:22:55;25.27;;;17.83;;
15012;SDS011;7603;49.432;11.418;2024-01-30T07:25:21;26.40;;;18.47;;
15012;SDS011;7603;49.432;11.418;2024-01-30T07:27:51;29.53;;;18.97;;
15012;SDS011;7603;49.432;11.418;2024-01-30T07:30:20;24.23;;;16.17;;
15012;SDS011;7603;49.432;11.418;2024-01-30T07:32:46;25.27;;;16.80;;
15012;SDS011;7603;49.432;11.418;2024-01-30T07:35:13;23.50;;;16.47;;
15012;SDS011;7603;49.432;11.418;2024-01-30T07:37:39;26.97;;;17.83;;
15012;SDS011;7603;49.432;11.418;2024-01-30T07:40:05;24.23;;;16.97;;
15012;SDS011;7603;49.432;11.418;2024-01-30T07:42:31;22.63;;;16.93;;
15012;SDS011;7603;49.432;11.418;2024-01-30T07:44:58;23.67;;;16.90;;
15012;SDS011;7603;49.432;11.418;2024-01-30T07:47:24;22.57;;;16.80;;
15012;SDS011;7603;49.432;11.418;2024-01-30T07:49:49;28.43;;;16.97;;
15012;SDS011;7603;49.432;11.418;2024-01-30T07:52:16;26.58;;;17.33;;
15012;SDS011;7603;49.432;11.418;2024-01-30T07:54:41;24.42;;;16.50;;
15012;SDS011;7603;49.432;11.418;2024-01-30T07:57:07;26.70;;;16.20;;
15012;SDS011;7603;49.432;11.418;2024-01-30T07:59:33;25.83;;;17.90;;
15012;SDS011;7603;49.432;11.418;2024-01-30T08:01:58;27.33;;;18.20;;
15012;SDS011;7603;49.432;11.418;2024-01-30T08:04:24;20.52;;;14.98;;
15012;SDS011;7603;49.432;11.418;2024-01-30T08:06:49;19.38;;;15.05;;
15012;SDS011;7603;49.432;11.418;2024-01-30T08:09:15;21.50;;;15.02;;
15012;SDS011;7603;49.432;11.418;2024-01-30T08:11:41;18.38;;;15.35;;
15012;SDS011;7603;49.432;11.418;2024-01-30T08:14:06;21.45;;;15.52;;
15012;SDS011;7603;49.432;11.418;2024-01-30T08:16:32;25.35;;;17.65;;
15012;SDS011;7603;49.432;11.418;2024-01-30T08:18:58;18.42;;;15.10;;
15012;SDS011;7603;49.432;11.418;2024-01-30T08:21:23;22.77;;;15.15;;
15012;SDS011;7603;49.432;11.418;2024-01-30T08:23:49;20.50;;;15.68;;
15012;SDS011;7603;49.432;11.418;2024-01-30T08:26:15;21.77;;;15.80;;
15012;SDS011;7603;49.432;11.418;2024-01-30T08:28:40;18.08;;;14.60;;
15012;SDS011;7603;49.432;11.418;2024-01-30T08:31:06;24.15;;;15.52;;
15012;SDS011;7603;49.432;11.418;2024-01-30T08:33:31;21.92;;;14.85;;
15012;SDS011;7603;49.432;11.418;2024-01-30T08:35:57;17.95;;;14.82;;
15012;SDS011;7603;49.432;11.418;2024-01-30T08:38:23;18.63;;;15.13;;
15012;SDS011;7603;49.432;11.418;2024-01-30T08:40:49;20.95;;;16.15;;
15012;SDS011;7603;49.432;11.418;2024-01-30T08:43:14;22.88;;;16.30;;
15012;SDS011;7603;49.432;11.418;2024-01-30T08:45:40;20.45;;;15.27;;
15012;SDS011;7603;49.432;11.418;2024-01-30T08:48:06;23.40;;;15.18;;
15012;SDS011;7603;49.432;11.418;2024-01-30T08:50:33;19.42;;;15.05;;
15012;SDS011;7603;49.432;11.418;2024-01-30T08:52:59;18.75;;;14.55;;
15012;SDS011;7603;49.432;11.418;2024-01-30T08:55:25;19.95;;;15.57;;
15012;SDS011;7603;49.432;11.418;2024-01-30T08:57:50;17.83;;;15.75;;
15012;SDS011;7603;49.432;11.418;2024-01-30T09:00:17;19.65;;;15.27;;
15012;SDS011;7603;49.432;11.418;2024-01-30T09:02:43;21.95;;;17.08;;
15012;SDS011;7603;49.432;11.418;2024-01-30T09:05:08;19.48;;;16.30;;
15012;SDS011;7603;49.432;11.418;2024-01-30T09:07:34;18.05;;;14.60;;
15012;SDS011;7603;49.432;11.418;2024-01-30T09:10:00;18.80;;;15.38;;
15012;SDS011;7603;49.432;11.418;2024-01-30T09:12:26;16.55;;;14.70;;
15012;SDS011;7603;49.432;11.418;2024-01-30T09:14:51;16.73;;;14.90;;
15012;SDS011;7603;49.432;11.418;2024-01-30T09:17:17;21.00;;;17.27;;
15012;SDS011;7603;49.432;11.418;2024-01-30T09:19:43;16.05;;;14.27;;
15012;SDS011;7603;49.432;11.418;2024-01-30T09:22:08;18.17;;;16.02;;
15012;SDS011;7603;49.432;11.418;2024-01-30T09:24:34;20.80;;;14.75;;
15012;SDS011;7603;49.432;11.418;2024-01-30T09:27:00;17.02;;;15.18;;
15012;SDS011;7603;49.432;11.418;2024-01-30T09:29:25;19.02;;;15.93;;
15012;SDS011;7603;49.432;11.418;2024-01-30T09:31:51;16.95;;;15.15;;
15012;SDS011;7603;49.432;11.418;2024-01-30T09:34:17;17.42;;;15.63;;
15012;SDS011;7603;49.432;11.418;2024-01-30T09:36:42;17.25;;;15.40;;
15012;SDS011;7603;49.432;11.418;2024-01-30T09:39:08;20.58;;;15.05;;
15012;SDS011;7603;49.432;11.418;2024-01-30T09:41:34;18.67;;;14.63;;
15012;SDS011;7603;49.432;11.418;2024-01-30T09:44:10;18.27;;;15.18;;
15012;SDS011;7603;49.432;11.418;2024-01-30T09:46:38;14.60;;;13.30;;
15012;SDS011;7603;49.432;11.418;2024-01-30T09:49:05;15.60;;;14.10;;
15012;SDS011;7603;49.432;11.418;2024-01-30T09:51:33;17.88;;;14.60;;
15012;SDS011;7603;49.432;11.418;2024-01-30T09:53:59;14.90;;;13.48;;
15012;SDS011;7603;49.432;11.418;2024-01-30T09:56:25;18.25;;;14.98;;
15012;SDS011;7603;49.432;11.418;2024-01-30T09:58:51;15.63;;;14.05;;
15012;SDS011;7603;49.432;11.418;2024-01-30T10:01:17;18.08;;;14.32;;
15012;SDS011;7603;49.432;11.418;2024-01-30T10:03:44;15.00;;;13.50;;
15012;SDS011;7603;49.432;11.418;2024-01-30T10:06:10;15.63;;;14.13;;
15012;SDS011;7603;49.432;11.418;2024-01-30T10:08:36;13.95;;;12.70;;
15012;SDS011;7603;49.432;11.418;2024-01-30T10:11:02;14.77;;;13.38;;
15012;SDS011;7603;49.432;11.418;2024-01-30T10:13:28;14.75;;;13.18;;
15012;SDS011;7603;49.432;11.418;2024-01-30T10:15:54;14.05;;;12.75;;
15012;SDS011;7603;49.432;11.418;2024-01-30T10:18:22;17.30;;;13.50;;
15012;SDS011;7603;49.432;11.418;2024-01-30T10:20:48;13.88;;;12.50;;
15012;SDS011;7603;49.432;11.418;2024-01-30T10:23:14;15.30;;;13.73;;
15012;SDS011;7603;49.432;11.418;2024-01-30T10:25:40;15.30;;;13.75;;
15012;SDS011;7603;49.432;11.418;2024-01-30T10:28:06;16.40;;;14.57;;
15012;SDS011;7603;49.432;11.418;2024-01-30T10:30:32;16.05;;;14.48;;
15012;SDS011;7603;49.432;11.418;2024-01-30T10:32:57;14.95;;;13.65;;
15012;SDS011;7603;49.432;11.418;2024-01-30T10:35:23;13.93;;;12.50;;
15012;SDS011;7603;49.432;11.418;2024-01-30T10:37:49;14.35;;;12.95;;
15012;SDS011;7603;49.432;11.418;2024-01-30T10:40:14;14.95;;;13.38;;
15012;SDS011;7603;49.432;11.418;2024-01-30T10:42:44;15.23;;;13.82;;
15012;SDS011;7603;49.432;11.418;2024-01-30T10:45:13;14.45;;;13.02;;
15012;SDS011;7603;49.432;11.418;2024-01-30T10:47:42;15.15;;;13.85;;
15012;SDS011;7603;49.432;11.418;2024-01-30T10:50:13;14.70;;;13.27;;
15012;SDS011;7603;49.432;11.418;2024-01-30T10:52:39;14.65;;;13.25;;
15012;SDS011;7603;49.432;11.418;2024-01-30T10:55:07;14.52;;;13.23;;
15012;SDS011;7603;49.432;11.418;2024-01-30T10:57:36;19.55;;;16.60;;
15012;SDS011;7603;49.432;11.418;2024-01-30T11:00:12;14.25;;;12.85;;
15012;SDS011;7603;49.432;11.418;2024-01-30T11:02:41;14.00;;;12.80;;
15012;SDS011;7603;49.432;11.418;2024-01-30T11:05:08;13.93;;;11.35;;
15012;SDS011;7603;49.432;11.418;2024-01-30T11:07:34;13.93;;;12.73;;
15012;SDS011;7603;49.432;11.418;2024-01-30T11:10:04;14.68;;;13.13;;
15012;SDS011;7603;49.432;11.418;2024-01-30T11:12:32;13.98;;;12.57;;
15012;SDS011;7603;49.432;11.418;2024-01-30T11:15:03;13.65;;;12.40;;
15012;SDS011;7603;49.432;11.418;2024-01-30T11:20:30;14.50;;;13.10;;
15012;SDS011;7603;49.432;11.418;2024-01-30T11:22:56;15.15;;;13.57;;
15012;SDS011;7603;49.432;11.418;2024-01-30T11:25:23;15.75;;;14.15;;
15012;SDS011;7603;49.432;11.418;2024-01-30T11:27:50;14.60;;;13.15;;
15012;SDS011;7603;49.432;11.418;2024-01-30T11:30:23;18.80;;;16.90;;
15012;SDS011;7603;49.432;11.418;2024-01-30T11:33:02;15.90;;;14.40;;
15012;SDS011;7603;49.432;11.418;2024-01-30T11:35:38;17.30;;;15.55;;
15012;SDS011;7603;49.432;11.418;2024-01-30T11:38:08;17.58;;;15.45;;
15012;SDS011;7603;49.432;11.418;2024-01-30T11:40:35;15.30;;;13.93;;
15012;SDS011;7603;49.432;11.418;2024-01-30T11:43:03;16.50;;;14.75;;
15012;SDS011;7603;49.432;11.418;2024-01-30T11:45:29;17.13;;;15.35;;
15012;SDS011;7603;49.432;11.418;2024-01-30T11:47:56;16.17;;;14.40;;
15012;SDS011;7603;49.432;11.418;2024-01-30T11:50:22;17.73;;;14.18;;
15012;SDS011;7603;49.432;11.418;2024-01-30T11:52:49;16.83;;;15.10;;
15012;SDS011;7603;49.432;11.418;2024-01-30T11:55:15;16.05;;;14.55;;
15012;SDS011;7603;49.432;11.418;2024-01-30T11:57:41;16.13;;;14.32;;
15012;SDS011;7603;49.432;11.418;2024-01-30T12:00:18;15.48;;;14.05;;
15012;SDS011;7603;49.432;11.418;2024-01-30T12:02:49;16.02;;;14.27;;
15012;SDS011;7603;49.432;11.418;2024-01-30T12:05:20;16.63;;;14.70;;
15012;SDS011;7603;49.432;11.418;2024-01-30T12:07:46;17.35;;;15.65;;
15012;SDS011;7603;49.432;11.418;2024-01-30T12:10:13;21.27;;;19.10;;
15012;SDS011;7603;49.432;11.418;2024-01-30T12:12:39;15.85;;;14.25;;
15012;SDS011;7603;49.432;11.418;2024-01-30T12:15:06;17.00;;;15.25;;
15012;SDS011;7603;49.432;11.418;2024-01-30T12:17:33;16.27;;;14.70;;
15012;SDS011;7603;49.432;11.418;2024-01-30T12:20:02;16.05;;;14.52;;
15012;SDS011;7603;49.432;11.418;2024-01-30T12:22:41;16.15;;;14.45;;
15012;SDS011;7603;49.432;11.418;2024-01-30T12:25:08;14.70;;;13.40;;
15012;SDS011;7603;49.432;11.418;2024-01-30T12:27:38;19.30;;;17.50;;
15012;SDS011;7603;49.432;11.418;2024-01-30T12:32:35;14.90;;;13.50;;
15012;SDS011;7603;49.432;11.418;2024-01-30T12:35:01;15.10;;;13.50;;
15012;SDS011;7603;49.432;11.418;2024-01-30T12:37:27;15.68;;;14.10;;
15012;SDS011;7603;49.432;11.418;2024-01-30T12:39:54;16.42;;;14.82;;
15012;SDS011;7603;49.432;11.418;2024-01-30T12:42:20;17.13;;;15.32;;
15012;SDS011;7603;49.432;11.418;2024-01-30T12:44:49;18.63;;;15.63;;
15012;SDS011;7603;49.432;11.418;2024-01-30T12:47:15;14.85;;;13.35;;
15012;SDS011;7603;49.432;11.418;2024-01-30T12:49:42;18.48;;;14.10;;
15012;SDS011;7603;49.432;11.418;2024-01-30T12:52:09;17.05;;;15.35;;
15012;SDS011;7603;49.432;11.418;2024-01-30T12:54:38;15.50;;;13.90;;
15012;SDS011;7603;49.432;11.418;2024-01-30T12:57:04;16.45;;;14.23;;
15012;SDS011;7603;49.432;11.418;2024-01-30T12:59:30;17.13;;;15.40;;
15012;SDS011;7603;49.432;11.418;2024-01-30T13:01:56;20.05;;;16.33;;
15012;SDS011;7603;49.432;11.418;2024-01-30T13:04:23;16.85;;;14.80;;
15012;SDS011;7603;49.432;11.418;2024-01-30T13:06:49;15.63;;;14.02;;
15012;SDS011;7603;49.432;11.418;2024-01-30T13:09:15;16.85;;;14.63;;
15012;SDS011;7603;49.432;11.418;2024-01-30T13:11:40;16.67;;;14.05;;
15012;SDS011;7603;49.432;11.418;2024-01-30T13:14:06;21.30;;;16.83;;
15012;SDS011;7603;49.432;11.418;2024-01-30T13:16:32;20.70;;;16.90;;
15012;SDS011;7603;49.432;11.418;2024-01-30T13:18:58;21.58;;;16.08;;
15012;SDS011;7603;49.432;11.418;2024-01-30T13:21:23;18.08;;;13.65;;
15012;SDS011;7603;49.432;11.418;2024-01-30T13:23:49;16.50;;;14.73;;
15012;SDS011;7603;49.432;11.418;2024-01-30T13:26:18;17.55;;;14.35;;
15012;SDS011;7603;49.432;11.418;2024-01-30T13:28:44;17.20;;;14.70;;
15012;SDS011;7603;49.432;11.418;2024-01-30T13:31:09;14.80;;;13.45;;
15012;SDS011;7603;49.432;11.418;2024-01-30T13:33:35;15.32;;;13.73;;
15012;SDS011;7603;49.432;11.418;2024-01-30T13:36:01;15.57;;;13.88;;
15012;SDS011;7603;49.432;11.418;2024-01-30T13:38:26;14.88;;;13.45;;
15012;SDS011;7603;49.432;11.418;2024-01-30T13:40:52;17.10;;;14.82;;
15012;SDS011;7603;49.432;11.418;2024-01-30T13:43:18;15.43;;;13.85;;
15012;SDS011;7603;49.432;11.418;2024-01-30T13:45:43;15.38;;;13.68;;
15012;SDS011;7603;49.432;11.418;2024-01-30T13:48:09;16.20;;;14.55;;
15012;SDS011;7603;49.432;11.418;2024-01-30T13:50:34;15.82;;;14.32;;
15012;SDS011;7603;49.432;11.418;2024-01-30T13:53:02;20.10;;;17.95;;
15012;SDS011;7603;49.432;11.418;2024-01-30T13:55:28;14.23;;;12.63;;
15012;SDS011;7603;49.432;11.418;2024-01-30T13:57:54;18.40;;;14.32;;
15012;SDS011;7603;49.432;11.418;2024-01-30T14:00:20;15.23;;;13.73;;
15012;SDS011;7603;49.432;11.418;2024-01-30T14:02:47;15.25;;;13.93;;
15012;SDS011;7603;49.432;11.418;2024-01-30T14:05:13;14.70;;;13.13;;
15012;SDS011;7603;49.432;11.418;2024-01-30T14:07:40;15.52;;;14.00;;
15012;SDS011;7603;49.432;11.418;2024-01-30T14:10:07;16.55;;;14.98;;
15012;SDS011;7603;49.432;11.418;2024-01-30T14:12:35;18.00;;;14.55;;
15012;SDS011;7603;49.432;11.418;2024-01-30T14:15:01;16.60;;;14.90;;
15012;SDS011;7603;49.432;11.418;2024-01-30T14:17:27;17.25;;;15.48;;
15012;SDS011;7603;49.432;11.418;2024-01-30T14:19:52;16.85;;;15.05;;
15012;SDS011;7603;49.432;11.418;2024-01-30T14:22:18;17.08;;;15.38;;
15012;SDS011;7603;49.432;11.418;2024-01-30T14:24:44;16.50;;;14.93;;
15012;SDS011;7603;49.432;11.418;2024-01-30T14:27:09;22.23;;;19.80;;
15012;SDS011;7603;49.432;11.418;2024-01-30T14:29:35;18.60;;;14.50;;
15012;SDS011;7603;49.432;11.418;2024-01-30T14:32:01;17.60;;;15.93;;